< < Back
Terminal Aerodrome Forecast


Current Version              Previous Versions:   1  2  3  4  5  6  7  8  9  

Terminal Aerodrome Forecast

155
FTUS42 KTAE 021700 AAC
TAFDHN
TAF AMD
KDHN 021700Z 0217/0312 00000KT P6SM BKN005 OVC016
     FM021800 VRB04KT P6SM BKN025 OVC050
     FM030000 VRB04KT P6SM OVC050
     FM030900 00000KT 1/4SM FG OVC015=



Latest METAR

733
SAUS70 KWBC 030400 RRO
MTRDHN
METAR KDHN 030353Z 00000KT 8SM BKN023 16/16 A3028 RMK AO2 SLP250
T01610156


USA.gov is the U.S. government's official web portal to all federal, state and local government web resources and services.